Time;durP1;ratioP1;P1;durP2;ratioP2;P2;SDS_P1;SDS_P2;PMS_P1;PMS_P2;Temp;Humidity;BMP_temperature;BMP_pressure;BME280_temperature;BME280_humidity;BME280_pressure;Samples;Min_cycle;Max_cycle;Signal;HPM_P1;HPM_P2
2022/09/05 00:03:53;;;;;;;3.10;2.43;;;18.40;94.00;;;;;;20673343;28;20214;-76
2022/09/05 00:14:28;;;;;;;2.70;2.20;;;18.40;94.10;;;;;;20673503;28;20265;-75
2022/09/05 00:25:29;;;;;;;4.97;2.60;;;18.40;94.20;;;;;;20673929;28;20210;-75
2022/09/05 00:36:06;;;;;;;2.50;2.30;;;18.30;94.30;;;;;;20659546;28;20242;-76
2022/09/05 00:46:39;;;;;;;4.67;3.03;;;18.10;94.50;;;;;;20670987;28;20557;-75
2022/09/05 00:56:56;;;;;;;3.87;2.60;;;17.90;94.60;;;;;;20655151;28;20269;-76
2022/09/05 01:07:12;;;;;;;3.27;2.97;;;17.80;94.80;;;;;;20669112;28;20213;-76
2022/09/05 01:17:41;;;;;;;3.73;3.00;;;17.70;94.90;;;;;;20667463;28;20252;-76
2022/09/05 01:28:13;;;;;;;2.80;2.60;;;17.60;95.20;;;;;;20668177;28;20252;-76
2022/09/05 01:38:53;;;;;;;4.60;2.80;;;17.60;95.30;;;;;;20668535;28;20236;-77
2022/09/05 01:49:35;;;;;;;2.77;2.53;;;17.50;95.40;;;;;;20667775;28;20233;-76
2022/09/05 01:59:53;;;;;;;2.73;2.53;;;17.50;95.60;;;;;;20649968;28;20213;-77
2022/09/05 02:09:57;;;;;;;5.10;2.80;;;17.40;95.60;;;;;;20665874;28;20764;-77
2022/09/05 02:20:22;;;;;;;10.47;2.50;;;17.30;95.70;;;;;;20665697;28;20236;-75
2022/09/05 02:30:33;;;;;;;4.90;2.90;;;17.30;95.80;;;;;;20672441;28;20335;-76
2022/09/05 02:40:35;;;;;;;6.03;3.03;;;17.20;95.90;;;;;;20681014;28;20713;-75
2022/09/05 02:51:28;;;;;;;6.07;2.73;;;17.20;95.90;;;;;;20680396;28;20243;-77
2022/09/05 03:02:16;;;;;;;3.30;2.70;;;17.10;96.00;;;;;;20678793;28;20214;-74
2022/09/05 03:12:45;;;;;;;4.13;3.37;;;17.00;96.20;;;;;;20678299;28;20245;-76
2022/09/05 03:23:08;;;;;;;3.30;2.80;;;16.90;96.30;;;;;;20677473;28;20210;-77
2022/09/05 03:33:16;;;;;;;2.97;2.67;;;16.90;96.30;;;;;;20676489;28;20235;-77
2022/09/05 03:43:42;;;;;;;8.53;2.80;;;16.80;96.30;;;;;;20675163;28;20267;-76
2022/09/05 03:53:57;;;;;;;2.80;2.50;;;16.60;96.20;;;;;;20675277;28;20255;-77
2022/09/05 04:04:36;;;;;;;4.47;3.00;;;16.50;96.30;;;;;;20675496;28;20648;-77
2022/09/05 04:15:25;;;;;;;4.80;2.70;;;16.40;96.50;;;;;;20673838;28;20667;-76
2022/09/05 04:25:38;;;;;;;3.13;2.80;;;16.40;96.60;;;;;;20673065;28;20225;-77
2022/09/05 04:35:50;;;;;;;4.97;3.10;;;16.40;96.40;;;;;;20671904;28;20604;-77
2022/09/05 04:46:09;;;;;;;5.53;3.30;;;16.40;96.30;;;;;;20671120;28;20206;-77
2022/09/05 04:56:19;;;;;;;4.23;3.40;;;16.40;96.30;;;;;;20670233;28;20710;-77
2022/09/05 05:06:24;;;;;;;5.30;3.40;;;16.40;96.40;;;;;;20669271;28;20216;-75
2022/09/05 05:16:55;;;;;;;8.10;3.40;;;16.50;96.50;;;;;;20667388;28;20316;-72
2022/09/05 05:27:40;;;;;;;10.43;4.23;;;16.50;96.70;;;;;;20668999;28;20216;-74
2022/09/05 05:38:02;;;;;;;8.67;3.67;;;16.60;96.60;;;;;;20667072;28;20670;-77
2022/09/05 05:48:25;;;;;;;21.23;5.20;;;16.60;96.50;;;;;;20627146;28;20260;-77
2022/09/05 05:58:56;;;;;;;16.03;4.40;;;16.70;96.40;;;;;;20665542;28;20213;-76
2022/09/05 06:09:21;;;;;;;7.00;5.07;;;16.90;96.50;;;;;;20657338;28;20244;-77
2022/09/05 06:20:20;;;;;;;13.27;5.23;;;17.00;96.60;;;;;;20667190;28;20234;-77
2022/09/05 06:30:56;;;;;;;13.57;4.97;;;17.00;96.90;;;;;;20680584;28;20236;-78
2022/09/05 06:41:36;;;;;;;9.33;5.00;;;17.20;97.30;;;;;;20679943;28;20212;-76
2022/09/05 06:51:50;;;;;;;14.10;5.20;;;17.60;97.20;;;;;;20678547;28;20245;-76
2022/09/05 07:02:22;;;;;;;7.30;5.00;;;17.90;96.90;;;;;;20677998;28;20206;-74
2022/09/05 07:12:50;;;;;;;6.60;4.70;;;18.00;96.80;;;;;;20677547;28;20308;-74
2022/09/05 07:23:18;;;;;;;10.33;4.53;;;18.40;96.80;;;;;;20675822;28;20206;-77
2022/09/05 07:33:43;;;;;;;14.43;5.60;;;18.70;96.50;;;;;;20675202;28;20310;-77
2022/09/05 07:43:50;;;;;;;7.93;5.23;;;19.00;96.20;;;;;;20675256;28;20207;-77
2022/09/05 07:54:15;;;;;;;14.67;5.50;;;19.20;96.00;;;;;;20674648;28;20600;-79
2022/09/05 08:04:40;;;;;;;6.10;4.50;;;19.60;95.80;;;;;;20674337;28;20215;-79
2022/09/05 08:14:48;;;;;;;8.77;4.93;;;19.90;95.40;;;;;;20672492;28;20340;-78
2022/09/05 08:25:01;;;;;;;4.75;3.83;;;20.20;95.10;;;;;;20666563;28;20968;-77
2022/09/05 08:35:12;;;;;;;6.20;3.60;;;21.00;93.80;;;;;;20668369;28;20292;-78
2022/09/05 08:45:21;;;;;;;4.83;3.53;;;21.00;93.90;;;;;;20669865;28;20252;-76
2022/09/05 08:56:03;;;;;;;5.67;3.80;;;21.30;93.70;;;;;;20669472;28;20245;-78
2022/09/05 09:06:20;;;;;;;6.30;3.27;;;21.70;93.30;;;;;;20668173;28;20205;-75
2022/09/05 09:16:32;;;;;;;5.23;3.50;;;22.10;93.00;;;;;;20665420;28;20281;-78
2022/09/05 09:26:57;;;;;;;8.67;3.37;;;22.40;92.60;;;;;;20666784;28;20572;-76
2022/09/05 09:37:33;;;;;;;8.13;3.00;;;22.70;92.20;;;;;;20634231;28;20252;-77
2022/09/05 09:48:04;;;;;;;4.20;2.90;;;22.90;91.50;;;;;;20665945;28;20292;-75
2022/09/05 09:58:40;;;;;;;3.33;2.80;;;23.30;91.00;;;;;;20665788;28;20252;-76
2022/09/05 10:09:02;;;;;;;5.40;2.57;;;23.50;90.40;;;;;;20664469;28;20260;-79
2022/09/05 10:20:02;;;;;;;5.33;3.20;;;23.70;88.80;;;;;;20664003;28;20229;-77
2022/09/05 10:30:21;;;;;;;2.50;2.30;;;24.10;85.70;;;;;;20655127;28;20237;-77
2022/09/05 10:40:46;;;;;;;7.67;3.97;;;24.30;82.70;;;;;;20663295;28;20214;-78
2022/09/05 10:51:34;;;;;;;2.93;2.10;;;24.60;79.10;;;;;;20669190;28;20288;-76
2022/09/05 11:01:41;;;;;;;3.70;3.27;;;24.80;75.70;;;;;;20677373;28;20245;-78
2022/09/05 11:12:30;;;;;;;2.67;2.00;;;25.00;72.70;;;;;;20677530;28;20237;-79
2022/09/05 11:22:41;;;;;;;5.90;1.90;;;25.10;70.30;;;;;;20676611;28;20253;-76
2022/09/05 11:33:27;;;;;;;15.90;3.20;;;25.10;69.60;;;;;;20675889;28;20233;-76
2022/09/05 11:44:21;;;;;;;2.20;1.60;;;25.10;68.40;;;;;;20444321;28;20212;-75
2022/09/05 11:54:32;;;;;;;6.23;1.80;;;25.50;65.80;;;;;;20673881;28;20304;-75
2022/09/05 12:04:48;;;;;;;2.50;2.13;;;26.00;63.20;;;;;;20672487;28;20220;-78
2022/09/05 12:15:24;;;;;;;2.13;1.60;;;26.30;60.80;;;;;;20670843;28;20261;-75
2022/09/05 12:25:53;;;;;;;1.70;1.50;;;26.40;58.70;;;;;;20601384;28;20575;-79
2022/09/05 12:36:34;;;;;;;1.90;1.70;;;26.50;57.60;;;;;;20671061;28;20292;-76
2022/09/05 12:47:07;;;;;;;2.03;1.40;;;26.80;56.70;;;;;;20669377;28;20210;-76
2022/09/05 12:57:26;;;;;;;5.03;1.80;;;26.70;55.70;;;;;;20669657;28;20780;-76
2022/09/05 13:07:55;;;;;;;6.70;5.03;;;26.40;55.10;;;;;;20667937;28;20210;-76
2022/09/05 13:18:19;;;;;;;16.70;2.80;;;26.30;55.10;;;;;;20666531;28;20260;-66
2022/09/05 13:28:25;;;;;;;8.50;2.70;;;26.20;57.10;;;;;;20664793;28;20214;-66
2022/09/05 13:38:38;;;;;;;11.20;2.60;;;26.10;59.10;;;;;;20665782;28;20632;-69
2022/09/05 13:48:58;;;;;;;17.57;2.83;;;26.10;60.10;;;;;;20665191;28;20320;-69
2022/09/05 13:59:26;;;;;;;4.77;3.03;;;26.00;60.30;;;;;;20661650;28;20332;-71
2022/09/05 14:09:43;;;;;;;6.73;2.50;;;26.10;59.80;;;;;;20663176;28;20234;-67
2022/09/05 14:30:07;;;;;;;5.57;2.47;;;26.40;58.60;;;;;;20674399;28;20249;-75
2022/09/05 14:41:02;;;;;;;2.97;1.50;;;26.50;57.00;;;;;;20678963;28;20604;-77
2022/09/05 14:51:25;;;;;;;4.00;1.87;;;26.80;56.10;;;;;;20678613;28;20238;-74
2022/09/05 15:01:29;;;;;;;2.40;1.80;;;27.10;55.00;;;;;;20678004;28;20694;-76
2022/09/05 15:11:51;;;;;;;3.53;1.67;;;27.40;54.40;;;;;;20678520;28;20769;-77
2022/09/05 15:22:26;;;;;;;3.60;2.40;;;27.10;54.10;;;;;;20677178;28;20735;-74
2022/09/05 15:32:29;;;;;;;2.00;1.80;;;27.40;53.90;;;;;;20675976;28;20706;-75
2022/09/05 15:42:33;;;;;;;3.43;2.10;;;28.00;52.30;;;;;;20675082;28;20214;-75
2022/09/05 15:52:49;;;;;;;2.67;1.47;;;27.20;52.70;;;;;;20674875;28;20241;-74
2022/09/05 16:02:56;;;;;;;2.60;1.43;;;26.90;52.80;;;;;;20672668;28;20667;-76
2022/09/05 16:13:18;;;;;;;6.53;2.43;;;26.60;53.00;;;;;;20658501;28;20606;-76
2022/09/05 16:23:52;;;;;;;3.47;1.80;;;26.40;53.40;;;;;;20674259;28;20729;-75
2022/09/05 16:33:55;;;;;;;5.13;2.80;;;26.40;53.60;;;;;;20671860;28;20233;-75
2022/09/05 16:44:03;;;;;;;4.97;2.60;;;26.30;54.10;;;;;;20671284;28;20214;-74
2022/09/05 16:54:09;;;;;;;3.30;1.80;;;26.20;54.50;;;;;;20670560;28;20238;-74
2022/09/05 17:04:24;;;;;;;2.73;1.83;;;26.00;54.90;;;;;;20669802;28;20206;-75
2022/09/05 17:14:38;;;;;;;2.27;1.67;;;25.90;55.10;;;;;;20651751;28;20241;-76
2022/09/05 17:24:44;;;;;;;2.10;1.80;;;25.80;55.30;;;;;;20668706;28;20659;-76
2022/09/05 17:35:14;;;;;;;3.13;2.40;;;25.60;55.60;;;;;;20668303;28;20683;-77
2022/09/05 17:45:26;;;;;;;4.13;2.90;;;25.40;56.20;;;;;;20650711;28;20624;-77
2022/09/05 17:55:36;;;;;;;2.40;2.20;;;25.20;56.90;;;;;;20667084;28;20233;-78
2022/09/05 18:05:53;;;;;;;3.87;2.40;;;25.00;57.60;;;;;;20663422;28;20209;-74
2022/09/05 18:15:55;;;;;;;13.13;9.30;;;24.80;58.00;;;;;;20664894;28;20242;-75
2022/09/05 18:26:00;;;;;;;16.30;12.07;;;24.60;58.60;;;;;;20666041;28;20217;-76
2022/09/05 18:36:20;;;;;;;4.40;2.50;;;24.40;59.20;;;;;;20665370;28;20234;-74
2022/09/05 18:46:57;;;;;;;4.67;2.10;;;24.20;59.60;;;;;;20644084;28;20213;-76
2022/09/05 18:57:02;;;;;;;5.97;4.00;;;24.10;60.10;;;;;;20660955;28;20241;-75
2022/09/05 19:07:28;;;;;;;3.63;2.63;;;23.90;61.00;;;;;;20661322;28;20209;-76
2022/09/05 19:17:35;;;;;;;2.97;2.60;;;23.70;62.40;;;;;;20675603;28;20625;-75
2022/09/05 19:27:46;;;;;;;3.83;3.10;;;23.50;63.40;;;;;;20657500;28;20712;-76
2022/09/05 19:38:11;;;;;;;7.37;5.10;;;23.30;64.40;;;;;;20668192;28;20244;-76
2022/09/05 19:48:20;;;;;;;5.00;3.20;;;23.10;65.50;;;;;;20667677;28;20699;-64
2022/09/05 19:58:27;;;;;;;6.10;2.80;;;22.90;66.90;;;;;;20666707;28;20238;-65
2022/09/05 20:08:33;;;;;;;6.67;2.93;;;22.70;67.90;;;;;;20666223;28;20237;-73
2022/09/05 20:18:41;;;;;;;3.87;2.60;;;22.60;68.30;;;;;;20665028;28;20575;-72
2022/09/05 20:28:44;;;;;;;3.87;2.80;;;22.50;68.90;;;;;;20663702;28;20220;-73
2022/09/05 20:39:04;;;;;;;7.53;2.80;;;22.30;69.50;;;;;;20664060;28;20234;-72
2022/09/05 20:49:31;;;;;;;8.23;2.80;;;22.10;70.20;;;;;;20663561;28;20214;-73
2022/09/05 20:59:53;;;;;;;8.37;2.83;;;21.90;70.90;;;;;;20663211;28;20775;-72
2022/09/05 21:09:57;;;;;;;7.93;3.50;;;21.80;71.60;;;;;;20664014;28;20703;-71
2022/09/05 21:20:05;;;;;;;3.53;2.90;;;21.70;72.50;;;;;;20666779;28;20248;-71
2022/09/05 21:30:37;;;;;;;2.90;2.60;;;21.40;73.40;;;;;;20668260;28;20671;-71
2022/09/05 21:40:40;;;;;;;3.93;3.00;;;21.30;74.50;;;;;;20667886;28;20217;-72
2022/09/05 21:50:45;;;;;;;4.47;3.43;;;21.20;75.50;;;;;;20666933;28;20248;-71
2022/09/05 22:00:49;;;;;;;6.47;3.30;;;21.10;76.00;;;;;;20649810;28;20267;-71
2022/09/05 22:10:51;;;;;;;4.37;2.80;;;20.90;76.50;;;;;;20666510;28;20241;-71
2022/09/05 22:20:53;;;;;;;7.40;2.93;;;20.90;77.20;;;;;;20665781;28;20622;-71
2022/09/05 22:31:19;;;;;;;6.47;2.70;;;20.80;77.90;;;;;;20666478;28;20236;-72
2022/09/05 22:41:21;;;;;;;5.90;2.80;;;20.60;78.50;;;;;;20665503;28;20260;-71
2022/09/05 22:51:31;;;;;;;5.27;2.87;;;20.50;79.20;;;;;;20678177;28;20236;-72
2022/09/05 23:01:33;;;;;;;5.30;2.70;;;20.40;80.00;;;;;;20679611;28;20214;-71
2022/09/05 23:11:35;;;;;;;4.13;2.90;;;20.30;80.20;;;;;;20678916;28;20229;-71
2022/09/05 23:21:37;;;;;;;4.27;2.93;;;20.20;80.70;;;;;;20677981;28;20617;-71
2022/09/05 23:31:38;;;;;;;4.70;2.73;;;20.20;81.10;;;;;;20677113;28;20298;-71
2022/09/05 23:41:40;;;;;;;3.53;2.50;;;20.20;81.30;;;;;;20676547;28;20289;-71
2022/09/05 23:51:42;;;;;;;3.10;2.80;;;20.20;81.10;;;;;;20676099;28;20233;-71
